createdAt,value
2018-12-21T00:00:01.799Z,-3.96
2018-12-21T00:02:31.399Z,-3.90
2018-12-21T00:05:00.971Z,-3.79
2018-12-21T00:07:30.702Z,-3.77
2018-12-21T00:10:00.667Z,-3.75
2018-12-21T00:12:30.260Z,-3.70
2018-12-21T00:15:00.074Z,-3.71
2018-12-21T00:17:34.462Z,-3.88
2018-12-21T00:19:59.653Z,-3.88
2018-12-21T00:22:29.315Z,-3.82
2018-12-21T00:24:58.782Z,-3.92
2018-12-21T00:27:28.414Z,-3.92
2018-12-21T00:29:58.004Z,-4.21
2018-12-21T00:32:32.641Z,-4.47
2018-12-21T00:35:07.470Z,-4.63
2018-12-21T00:37:42.233Z,-4.58
2018-12-21T00:40:16.903Z,-4.29
2018-12-21T00:42:51.691Z,-4.14
2018-12-21T00:45:24.514Z,-3.99
2018-12-21T00:47:54.467Z,-3.97
2018-12-21T00:50:23.877Z,-3.91
2018-12-21T00:52:53.399Z,-3.79
2018-12-21T01:12:45.393Z,-3.95
2018-12-21T01:15:15.132Z,-3.98
2018-12-21T01:17:44.713Z,-3.92
2018-12-21T01:20:14.562Z,-3.95
2018-12-21T01:22:44.163Z,-3.98
2018-12-21T01:25:13.811Z,-3.90
2018-12-21T01:27:44.247Z,-3.91
2018-12-21T01:30:13.743Z,-3.89
2018-12-21T01:32:43.387Z,-4.03
2018-12-21T01:35:13.168Z,-4.05
2018-12-21T01:37:42.592Z,-4.00
2018-12-21T01:40:12.240Z,-3.98
2018-12-21T01:42:42.160Z,-3.97
2018-12-21T01:45:11.843Z,-3.91
2018-12-21T01:47:41.533Z,-3.92
2018-12-21T01:50:11.385Z,-3.88
2018-12-21T01:52:40.929Z,-3.85
2018-12-21T01:55:10.599Z,-3.86
2018-12-21T01:57:40.591Z,-3.83
2018-12-21T02:00:10.469Z,-3.80
2018-12-21T02:02:40.397Z,-3.83
2018-12-21T02:05:09.943Z,-3.82
2018-12-21T02:07:39.744Z,-3.85
2018-12-21T02:10:09.272Z,-3.87
2018-12-21T02:12:38.640Z,-3.90
2018-12-21T02:15:08.466Z,-3.83
2018-12-21T02:17:38.106Z,-3.83
2018-12-21T02:20:08.084Z,-3.83
2018-12-21T02:22:37.775Z,-3.83
2018-12-21T02:25:07.468Z,-3.82
2018-12-21T02:27:37.032Z,-3.82
2018-12-21T02:30:07.900Z,-3.74
2018-12-21T02:32:37.949Z,-3.77
2018-12-21T02:35:07.473Z,-3.84
2018-12-21T02:54:59.711Z,-4.19
2018-12-21T03:14:51.991Z,-3.89
2018-12-21T03:34:43.836Z,-3.99
2018-12-21T03:57:03.715Z,-4.02
2018-12-21T03:59:33.359Z,-4.05
2018-12-21T04:02:03.140Z,-3.98
2018-12-21T04:04:32.971Z,-4.09
2018-12-21T04:07:02.718Z,-4.05
2018-12-21T04:09:32.412Z,-4.24
2018-12-21T04:12:02.152Z,-4.33
2018-12-21T04:14:31.749Z,-4.29
2018-12-21T04:17:01.371Z,-4.43
2018-12-21T04:19:30.945Z,-4.36
2018-12-21T04:22:00.664Z,-4.22
2018-12-21T04:24:30.586Z,-4.21
2018-12-21T04:27:00.296Z,-4.15
2018-12-21T04:29:29.902Z,-4.05
2018-12-21T04:31:59.745Z,-4.12
2018-12-21T04:34:29.314Z,-4.13
2018-12-21T04:36:58.877Z,-4.10
2018-12-21T04:39:28.536Z,-4.07
2018-12-21T04:41:58.337Z,-4.00
2018-12-21T04:44:28.287Z,-4.08
2018-12-21T04:46:57.823Z,-4.26
2018-12-21T04:49:27.426Z,-4.28
2018-12-21T04:51:57.096Z,-4.30
2018-12-21T04:54:26.804Z,-4.22
2018-12-21T04:56:56.662Z,-4.27
2018-12-21T04:59:27.768Z,-4.23
2018-12-21T05:01:57.411Z,-4.28
2018-12-21T05:04:26.878Z,-4.21
2018-12-21T05:06:56.587Z,-4.44
2018-12-21T05:09:26.296Z,-4.32
2018-12-21T05:11:55.868Z,-4.32
2018-12-21T05:14:25.317Z,-4.39
2018-12-21T05:16:55.349Z,-4.27
2018-12-21T05:19:24.713Z,-4.33
2018-12-21T05:21:54.339Z,-4.16
2018-12-21T05:24:23.917Z,-4.49
2018-12-21T05:26:53.397Z,-4.43
2018-12-21T05:29:24.253Z,-4.31
2018-12-21T05:31:54.147Z,-4.21
2018-12-21T05:34:23.424Z,-4.14
2018-12-21T05:36:53.997Z,-4.11
2018-12-21T05:39:23.468Z,-4.18
2018-12-21T05:41:54.068Z,-4.03
2018-12-21T05:44:23.604Z,-3.98
2018-12-21T05:46:53.179Z,-3.99
2018-12-21T05:49:22.594Z,-4.32
2018-12-21T05:51:52.548Z,-4.76
2018-12-21T05:54:21.928Z,-4.46
2018-12-21T05:56:51.657Z,-4.38
2018-12-21T05:59:21.451Z,-4.44
2018-12-21T06:01:51.140Z,-4.29
2018-12-21T06:04:20.546Z,-4.26
2018-12-21T06:06:50.388Z,-4.17
2018-12-21T06:09:19.956Z,-4.09
2018-12-21T06:11:49.669Z,-4.06
2018-12-21T06:14:19.507Z,-4.14
2018-12-21T06:16:49.106Z,-4.13
2018-12-21T06:19:18.604Z,-4.30
2018-12-21T06:21:48.524Z,-4.51
2018-12-21T06:24:18.408Z,-4.34
2018-12-21T06:26:47.943Z,-4.54
2018-12-21T06:29:17.776Z,-4.54
2018-12-21T06:31:47.111Z,-4.83
2018-12-21T06:34:16.900Z,-4.75
2018-12-21T06:36:46.545Z,-4.65
2018-12-21T06:39:16.038Z,-4.46
2018-12-21T06:41:45.928Z,-4.29
2018-12-21T06:44:15.664Z,-4.11
2018-12-21T06:46:45.115Z,-3.97
2018-12-21T06:49:14.845Z,-3.88
2018-12-21T06:51:44.536Z,-3.88
2018-12-21T06:54:14.135Z,-3.95
2018-12-21T06:56:44.002Z,-3.88
2018-12-21T06:59:13.555Z,-3.86
2018-12-21T07:01:43.150Z,-3.98
2018-12-21T07:04:13.217Z,-3.83
2018-12-21T07:06:42.949Z,-3.96
2018-12-21T07:09:12.611Z,-3.92
2018-12-21T07:11:42.159Z,-3.89
2018-12-21T07:14:11.768Z,-4.10
2018-12-21T07:16:41.519Z,-4.04
2018-12-21T07:19:11.043Z,-4.01
2018-12-21T07:21:40.694Z,-4.25
2018-12-21T07:24:10.266Z,-4.25
2018-12-21T07:26:39.770Z,-4.25
2018-12-21T07:29:09.316Z,-4.01
2018-12-21T07:31:41.526Z,-3.90
2018-12-21T07:34:11.246Z,-3.88
2018-12-21T07:36:41.133Z,-4.24
2018-12-21T07:39:10.760Z,-4.08
2018-12-21T07:41:40.258Z,-3.86
2018-12-21T07:44:10.155Z,-3.89
2018-12-21T07:46:39.807Z,-3.79
2018-12-21T07:49:09.194Z,-3.79
2018-12-21T07:51:38.812Z,-4.14
2018-12-21T07:54:08.324Z,-4.02
2018-12-21T07:56:37.807Z,-3.82
2018-12-21T07:59:07.596Z,-3.74
2018-12-21T08:01:37.283Z,-3.59
2018-12-21T08:04:06.965Z,-3.43
2018-12-21T08:06:36.650Z,-3.48
2018-12-21T08:09:07.592Z,-3.85
2018-12-21T08:11:37.079Z,-3.48
2018-12-21T08:14:07.077Z,-3.44
2018-12-21T08:16:36.631Z,-3.42
2018-12-21T08:19:06.035Z,-3.47
2018-12-21T08:21:35.789Z,-3.45
2018-12-21T08:24:05.251Z,-3.44
2018-12-21T08:26:34.854Z,-3.43
2018-12-21T08:29:04.595Z,-3.43
2018-12-21T08:31:34.375Z,-3.39
2018-12-21T08:34:05.304Z,-3.30
2018-12-21T08:36:35.036Z,-3.48
2018-12-21T08:39:05.179Z,-3.37
2018-12-21T08:41:34.925Z,-3.34
2018-12-21T08:44:04.608Z,-3.34
2018-12-21T08:46:34.185Z,-3.30
2018-12-21T08:49:03.957Z,-3.23
2018-12-21T08:51:33.313Z,-3.14
2018-12-21T08:54:03.012Z,-3.07
2018-12-21T08:56:32.857Z,-3.07
2018-12-21T08:59:02.527Z,-3.01
2018-12-21T09:01:31.977Z,-3.04
2018-12-21T09:04:01.756Z,-3.00
2018-12-21T09:06:31.355Z,-2.99
2018-12-21T09:09:01.064Z,-3.01
2018-12-21T09:11:30.927Z,-2.91
2018-12-21T09:14:00.375Z,-2.83
2018-12-21T09:16:30.506Z,-3.03
2018-12-21T09:19:00.244Z,-3.26
2018-12-21T09:21:30.033Z,-3.07
2018-12-21T09:24:01.227Z,-2.97
2018-12-21T09:26:29.374Z,-2.87
2018-12-21T09:28:58.850Z,-2.76
2018-12-21T09:31:28.355Z,-2.79
2018-12-21T09:33:58.236Z,-2.81
2018-12-21T09:36:27.866Z,-2.74
2018-12-21T09:38:57.450Z,-2.79
2018-12-21T09:41:27.491Z,-2.64
2018-12-21T09:43:56.888Z,-2.48
2018-12-21T09:46:26.524Z,-2.45
2018-12-21T09:48:56.273Z,-2.26
2018-12-21T09:51:25.658Z,-2.46
2018-12-21T09:53:55.205Z,-2.30
2018-12-21T09:56:24.976Z,-2.24
2018-12-21T09:58:54.570Z,-1.96
2018-12-21T10:01:24.012Z,-2.08
2018-12-21T10:03:54.374Z,-2.05
2018-12-21T10:06:23.759Z,-2.35
2018-12-21T10:08:53.693Z,-2.38
2018-12-21T10:11:22.994Z,-2.44
2018-12-21T10:13:52.403Z,-2.53
2018-12-21T10:16:22.107Z,-2.45
2018-12-21T10:18:51.729Z,-2.37
2018-12-21T10:21:21.313Z,-2.37
2018-12-21T10:23:50.870Z,-2.36
2018-12-21T10:26:20.443Z,-2.11
2018-12-21T10:28:50.210Z,-2.24
2018-12-21T10:31:19.956Z,-2.12
2018-12-21T10:33:49.546Z,-1.93
2018-12-21T10:36:19.236Z,-1.75
2018-12-21T10:38:48.660Z,-2.13
2018-12-21T10:41:18.240Z,-2.23
2018-12-21T10:43:47.912Z,-1.84
2018-12-21T10:46:17.651Z,-1.68
2018-12-21T10:48:47.084Z,-1.61
2018-12-21T10:51:16.618Z,-1.65
2018-12-21T10:53:46.824Z,-1.53
2018-12-21T10:56:16.181Z,-1.52
2018-12-21T10:58:45.652Z,-1.58
2018-12-21T11:01:15.366Z,-1.59
2018-12-21T11:03:45.094Z,-1.45
2018-12-21T11:06:14.710Z,-1.49
2018-12-21T11:08:44.675Z,-1.61
2018-12-21T11:11:14.216Z,-1.41
2018-12-21T11:13:43.993Z,-1.18
2018-12-21T11:16:13.463Z,-1.18
2018-12-21T11:18:43.052Z,-1.36
2018-12-21T11:21:12.678Z,-1.42
2018-12-21T11:23:42.280Z,-1.53
2018-12-21T11:26:11.851Z,-1.56
2018-12-21T11:28:41.680Z,-1.50
2018-12-21T11:31:11.523Z,-1.35
2018-12-21T11:33:40.864Z,-1.29
2018-12-21T11:36:10.695Z,-1.24
2018-12-21T11:38:40.229Z,-1.10
2018-12-21T11:41:09.654Z,-1.20
2018-12-21T11:43:39.559Z,-1.14
2018-12-21T11:46:09.188Z,-1.02
2018-12-21T11:48:38.735Z,-0.87
2018-12-21T11:51:08.591Z,-0.80
2018-12-21T11:53:38.062Z,-1.02
2018-12-21T11:56:07.679Z,-0.77
2018-12-21T11:58:37.539Z,-0.74
2018-12-21T12:01:07.224Z,-1.00
2018-12-21T12:03:38.565Z,-1.08
2018-12-21T12:06:08.634Z,-1.15
2018-12-21T12:08:38.248Z,-1.14
2018-12-21T12:11:08.058Z,-1.28
2018-12-21T12:13:37.803Z,-1.29
2018-12-21T12:16:07.298Z,-1.12
2018-12-21T12:18:37.377Z,-1.11
2018-12-21T12:21:06.911Z,-1.14
2018-12-21T12:23:36.524Z,-1.14
2018-12-21T12:26:06.118Z,-0.98
2018-12-21T12:28:35.630Z,-0.50
2018-12-21T12:31:05.159Z,0.14
2018-12-21T12:33:34.994Z,0.40
2018-12-21T12:36:05.249Z,0.21
2018-12-21T12:38:34.935Z,0.41
2018-12-21T12:41:06.775Z,0.36
2018-12-21T12:43:34.546Z,0.43
2018-12-21T12:46:04.162Z,0.70
2018-12-21T12:48:33.570Z,0.28
2018-12-21T12:51:03.276Z,0.07
2018-12-21T12:53:32.864Z,-0.09
2018-12-21T12:56:05.126Z,0.04
2018-12-21T12:58:32.593Z,-0.31
2018-12-21T13:01:02.300Z,-0.51
2018-12-21T13:03:32.138Z,-0.74
2018-12-21T13:06:01.816Z,-0.85
2018-12-21T13:08:31.313Z,-1.09
2018-12-21T13:11:01.275Z,-1.18
2018-12-21T13:13:31.019Z,-1.42
2018-12-21T13:16:00.655Z,-1.50
2018-12-21T13:18:30.307Z,-1.60
2018-12-21T13:20:59.863Z,-1.52
2018-12-21T13:23:29.404Z,-1.44
2018-12-21T13:25:58.915Z,-1.44
2018-12-21T13:28:28.616Z,-1.38
2018-12-21T13:30:58.326Z,-1.30
2018-12-21T13:33:28.357Z,-1.39
2018-12-21T13:35:57.828Z,-1.59
2018-12-21T13:38:27.331Z,-1.56
2018-12-21T13:40:56.775Z,-1.61
2018-12-21T13:43:26.136Z,-1.50
2018-12-21T13:45:55.961Z,-1.60
2018-12-21T13:48:25.796Z,-1.58
2018-12-21T13:50:55.384Z,-1.57
2018-12-21T13:53:24.791Z,-1.53
2018-12-21T13:55:54.920Z,-1.52
2018-12-21T13:58:24.263Z,-1.53
2018-12-21T14:00:53.705Z,-1.57
2018-12-21T14:03:23.072Z,-1.78
2018-12-21T14:05:52.822Z,-1.80
2018-12-21T14:08:22.214Z,-1.75
2018-12-21T14:10:52.058Z,-1.76
2018-12-21T14:13:21.551Z,-1.77
2018-12-21T14:15:50.955Z,-1.87
2018-12-21T14:18:20.640Z,-1.90
2018-12-21T14:20:50.160Z,-1.91
2018-12-21T14:23:19.880Z,-1.97
2018-12-21T14:25:49.512Z,-1.97
2018-12-21T14:28:19.272Z,-1.93
2018-12-21T14:30:49.114Z,-1.92
2018-12-21T14:33:18.847Z,-2.00
2018-12-21T14:35:48.532Z,-2.08
2018-12-21T14:38:17.938Z,-2.13
2018-12-21T14:40:47.583Z,-2.18
2018-12-21T14:43:17.048Z,-2.21
2018-12-21T14:45:46.770Z,-2.24
2018-12-21T14:48:16.274Z,-2.26
2018-12-21T14:50:45.894Z,-2.26
2018-12-21T14:53:15.609Z,-2.16
2018-12-21T14:55:45.287Z,-2.26
2018-12-21T14:58:14.847Z,-2.34
2018-12-21T15:00:44.392Z,-2.41
2018-12-21T15:03:14.259Z,-2.38
2018-12-21T15:05:43.822Z,-2.34
2018-12-21T15:08:13.533Z,-2.38
2018-12-21T15:10:43.055Z,-2.63
2018-12-21T15:13:12.624Z,-2.62
2018-12-21T15:15:42.171Z,-2.55
2018-12-21T15:18:12.617Z,-2.52
2018-12-21T15:20:42.212Z,-2.51
2018-12-21T15:23:11.802Z,-2.56
2018-12-21T15:25:46.002Z,-2.56
2018-12-21T15:28:11.260Z,-2.57
2018-12-21T15:30:40.683Z,-2.53
2018-12-21T15:33:10.500Z,-2.55
2018-12-21T15:35:40.225Z,-2.55
2018-12-21T15:38:09.756Z,-2.55
2018-12-21T15:40:39.713Z,-2.55
2018-12-21T15:43:09.202Z,-2.62
2018-12-21T15:45:38.987Z,-2.79
2018-12-21T15:48:08.892Z,-2.70
2018-12-21T15:50:38.372Z,-2.86
2018-12-21T15:53:07.993Z,-3.21
2018-12-21T15:55:37.725Z,-3.51
2018-12-21T15:58:07.135Z,-3.42
2018-12-21T16:00:36.517Z,-3.19
2018-12-21T16:03:07.011Z,-3.06
2018-12-21T16:05:36.755Z,-2.99
2018-12-21T16:08:06.617Z,-2.95
2018-12-21T16:10:36.404Z,-2.93
2018-12-21T16:13:05.917Z,-3.01
2018-12-21T16:15:35.477Z,-2.97
2018-12-21T16:18:05.160Z,-3.04
2018-12-21T16:20:34.745Z,-2.94
2018-12-21T16:23:04.293Z,-2.90
2018-12-21T16:25:34.158Z,-2.95
2018-12-21T16:28:03.714Z,-3.02
2018-12-21T16:30:33.480Z,-3.06
2018-12-21T16:33:03.179Z,-3.02
2018-12-21T16:35:32.582Z,-3.15
2018-12-21T16:38:02.477Z,-3.01
2018-12-21T16:40:31.886Z,-3.03
2018-12-21T16:43:01.415Z,-3.14
2018-12-21T16:45:31.037Z,-3.03
2018-12-21T16:48:00.650Z,-3.10
2018-12-21T16:50:31.088Z,-3.06
2018-12-21T16:53:00.632Z,-3.18
2018-12-21T16:55:30.208Z,-3.46
2018-12-21T16:58:00.017Z,-3.56
2018-12-21T17:00:29.480Z,-3.40
2018-12-21T17:02:59.137Z,-3.60
2018-12-21T17:05:28.756Z,-3.57
2018-12-21T17:07:58.440Z,-3.50
2018-12-21T17:10:28.017Z,-3.31
2018-12-21T17:12:57.882Z,-3.25
2018-12-21T17:15:27.415Z,-3.15
2018-12-21T17:17:57.165Z,-3.27
2018-12-21T17:20:26.895Z,-3.21
2018-12-21T17:22:56.466Z,-3.20
2018-12-21T17:25:28.204Z,-3.18
2018-12-21T17:27:57.852Z,-3.20
2018-12-21T17:30:27.467Z,-3.16
2018-12-21T17:32:57.196Z,-3.21
2018-12-21T17:35:26.641Z,-3.30
2018-12-21T17:37:56.316Z,-3.35
2018-12-21T17:40:26.039Z,-3.29
2018-12-21T17:42:55.505Z,-3.27
2018-12-21T17:45:24.927Z,-3.34
2018-12-21T17:47:54.724Z,-3.34
2018-12-21T17:50:24.129Z,-3.47
2018-12-21T17:52:53.833Z,-3.38
2018-12-21T17:55:23.524Z,-3.36
2018-12-21T17:57:53.046Z,-3.50
2018-12-21T18:00:22.584Z,-3.55
2018-12-21T18:02:55.744Z,-3.56
2018-12-21T18:05:27.510Z,-3.62
2018-12-21T18:07:58.062Z,-3.55
2018-12-21T18:10:27.777Z,-3.64
2018-12-21T18:12:57.301Z,-3.68
2018-12-21T18:15:28.194Z,-3.64
2018-12-21T18:17:57.719Z,-3.59
2018-12-21T18:20:27.503Z,-3.65
2018-12-21T18:22:57.184Z,-3.75
2018-12-21T18:25:29.134Z,-3.73
2018-12-21T18:28:01.386Z,-3.80
2018-12-21T18:30:35.388Z,-3.84
2018-12-21T18:33:10.881Z,-3.88
2018-12-21T18:35:36.301Z,-3.90
2018-12-21T18:38:09.170Z,-3.81
2018-12-21T18:40:38.872Z,-3.81
2018-12-21T18:43:08.722Z,-3.88
2018-12-21T18:45:38.439Z,-3.87
2018-12-21T18:48:08.252Z,-3.93
2018-12-21T18:50:37.887Z,-4.01
2018-12-21T18:53:07.601Z,-3.97
2018-12-21T18:55:37.543Z,-3.99
2018-12-21T18:58:07.087Z,-4.02
2018-12-21T19:00:36.482Z,-3.90
2018-12-21T19:03:06.398Z,-3.97
2018-12-21T19:05:36.151Z,-3.93
2018-12-21T19:08:05.846Z,-4.04
2018-12-21T19:10:35.464Z,-4.18
2018-12-21T19:13:05.086Z,-4.18
2018-12-21T19:15:34.641Z,-4.20
2018-12-21T19:18:04.567Z,-4.24
2018-12-21T19:20:34.184Z,-4.40
2018-12-21T19:23:03.911Z,-4.70
2018-12-21T19:25:33.744Z,-4.47
2018-12-21T19:28:03.243Z,-4.45
2018-12-21T19:30:32.935Z,-4.57
2018-12-21T19:33:02.772Z,-4.56
2018-12-21T19:35:32.327Z,-4.50
2018-12-21T19:38:01.912Z,-4.36
2018-12-21T19:40:31.553Z,-4.34
2018-12-21T19:43:01.397Z,-4.57
2018-12-21T19:45:30.850Z,-4.62
2018-12-21T19:48:00.597Z,-4.74
2018-12-21T19:50:30.679Z,-4.73
2018-12-21T19:53:02.471Z,-4.74
2018-12-21T19:55:39.267Z,-4.74
2018-12-21T19:58:08.837Z,-4.94
2018-12-21T20:00:38.315Z,-5.07
2018-12-21T20:03:08.134Z,-5.06
2018-12-21T20:05:37.772Z,-4.50
2018-12-21T20:08:07.345Z,-4.32
2018-12-21T20:10:37.023Z,-4.36
2018-12-21T20:13:06.790Z,-4.34
2018-12-21T20:15:36.621Z,-4.34
2018-12-21T20:18:06.579Z,-4.36
2018-12-21T20:20:36.147Z,-4.47
2018-12-21T20:23:05.747Z,-4.41
2018-12-21T20:25:35.549Z,-4.41
2018-12-21T20:28:05.496Z,-4.48
2018-12-21T20:30:35.286Z,-4.64
2018-12-21T20:33:05.188Z,-4.75
2018-12-21T20:35:34.744Z,-4.81
2018-12-21T20:38:04.617Z,-4.62
2018-12-21T20:40:34.357Z,-4.67
2018-12-21T20:43:04.147Z,-4.86
2018-12-21T20:45:34.599Z,-5.02
2018-12-21T20:48:04.379Z,-4.86
2018-12-21T20:50:33.856Z,-4.74
2018-12-21T20:53:04.473Z,-4.67
2018-12-21T20:55:34.288Z,-4.52
2018-12-21T20:58:11.256Z,-4.52
2018-12-21T21:00:41.951Z,-4.63
2018-12-21T21:03:11.767Z,-4.56
2018-12-21T21:05:41.490Z,-4.44
2018-12-21T21:08:11.319Z,-4.43
2018-12-21T21:10:41.004Z,-4.49
2018-12-21T21:13:19.007Z,-4.45
2018-12-21T21:15:40.302Z,-4.37
2018-12-21T21:18:09.920Z,-4.27
2018-12-21T21:20:39.332Z,-4.37
2018-12-21T21:23:09.208Z,-4.50
2018-12-21T21:25:38.736Z,-4.43
2018-12-21T21:28:08.265Z,-4.38
2018-12-21T21:30:39.400Z,-4.42
2018-12-21T21:33:08.852Z,-4.40
2018-12-21T21:35:38.396Z,-4.38
2018-12-21T21:38:08.261Z,-4.40
2018-12-21T21:40:39.159Z,-4.52
2018-12-21T21:43:12.055Z,-4.44
2018-12-21T21:45:41.761Z,-4.39
2018-12-21T21:48:11.575Z,-4.38
2018-12-21T21:50:41.473Z,-4.44
2018-12-21T21:53:11.219Z,-4.51
2018-12-21T21:55:40.915Z,-4.47
2018-12-21T21:58:10.842Z,-4.34
2018-12-21T22:00:41.147Z,-4.40
2018-12-21T22:03:10.626Z,-4.38
2018-12-21T22:05:40.696Z,-4.68
2018-12-21T22:08:10.279Z,-4.69
2018-12-21T22:10:39.875Z,-4.65
2018-12-21T22:13:09.634Z,-4.94
2018-12-21T22:15:39.177Z,-4.84
2018-12-21T22:18:08.743Z,-4.92
2018-12-21T22:20:38.216Z,-4.78
2018-12-21T22:23:07.651Z,-5.06
2018-12-21T22:25:37.465Z,-5.06
2018-12-21T22:28:07.341Z,-5.20
2018-12-21T22:30:36.956Z,-5.21
2018-12-21T22:33:06.589Z,-5.28
2018-12-21T22:35:36.376Z,-5.41
2018-12-21T22:38:05.984Z,-5.41
2018-12-21T22:40:35.568Z,-5.28
2018-12-21T22:43:05.481Z,-5.10
2018-12-21T22:45:35.227Z,-5.10
2018-12-21T22:48:04.623Z,-5.13
2018-12-21T22:50:34.266Z,-5.11
2018-12-21T22:53:03.822Z,-5.21
2018-12-21T22:55:33.455Z,-5.06
2018-12-21T22:58:03.348Z,-5.03
2018-12-21T23:00:36.550Z,-4.94
2018-12-21T23:03:06.028Z,-4.84
2018-12-21T23:05:35.767Z,-4.83
2018-12-21T23:08:05.484Z,-4.85
2018-12-21T23:10:35.213Z,-4.84
2018-12-21T23:13:04.904Z,-4.83
2018-12-21T23:15:34.604Z,-4.84
2018-12-21T23:18:04.561Z,-4.88
2018-12-21T23:20:34.030Z,-4.77
2018-12-21T23:23:03.510Z,-4.76
2018-12-21T23:25:33.395Z,-4.63
2018-12-21T23:28:05.251Z,-4.61
2018-12-21T23:30:32.779Z,-4.55
2018-12-21T23:33:02.684Z,-4.58
2018-12-21T23:35:32.428Z,-4.68
2018-12-21T23:38:02.342Z,-4.98
2018-12-21T23:40:31.924Z,-4.83
2018-12-21T23:43:01.536Z,-4.75
2018-12-21T23:45:31.467Z,-4.76
2018-12-21T23:48:01.165Z,-4.74
2018-12-21T23:50:30.867Z,-4.96
2018-12-21T23:53:00.830Z,-4.90
2018-12-21T23:55:30.386Z,-4.93
2018-12-21T23:57:59.999Z,-4.88
